M I D A S
Marine Information and Data Acquisition System
Tripno 1551 of the Zeeleeuw from 2008-04-17 07:09:46 to 2008-04-17 12:08:12
Back to CruiseResearch ActivitiesStationsMapUnderway DataData graphs

EquipmentUnitsComment
TimeDGPSUTC
LatitudeDGPSDM.mWGS84
LongitudeDGPSDM.mWGS84
HeadingGyrodeg 
SOGDGPSknotsSpeed over ground
COGDGPSdegCourse over ground
DepthEcho soundermeters200 kHz
Missing or incorrect values are displayed as -999
Navigation data collected by the RV Zeeleeuw from 2008-04-17 07:09:16 to 2008-04-17 12:17:56
                                                                                    Next 1000 lines
Time Latitude Longitude Heading SOG COG Depth
2008-04-17 07:09:26 51°13.665 2°55.955 122.1 0.1 203 6.1
2008-04-17 07:09:31 51°13.665 2°55.955 121.3 0.1 195 6.1
2008-04-17 07:09:36 51°13.665 2°55.955 120.3 0.1 196 6.1
2008-04-17 07:09:41 51°13.664 2°55.955 119.3 0.1 195 6.2
2008-04-17 07:09:46 51°13.664 2°55.955 117.7 0.1 195 6.2
2008-04-17 07:09:51 51°13.664 2°55.955 116.3 -999 231 6.2
2008-04-17 07:09:56 51°13.664 2°55.955 115.3 0.1 292 6.2
2008-04-17 07:10:01 51°13.664 2°55.955 114.2 0.2 293 -999
2008-04-17 07:10:06 51°13.665 2°55.954 113.7 0.4 308 6.2
2008-04-17 07:10:11 51°13.665 2°55.953 113.4 0.7 298 6.2
2008-04-17 07:10:16 51°13.666 2°55.95 113.2 1.2 297 6.2
2008-04-17 07:10:21 51°13.667 2°55.947 113.2 1.6 296 6.1
2008-04-17 07:10:26 51°13.668 2°55.943 113.2 2.2 296 6.1
2008-04-17 07:10:31 51°13.67 2°55.937 113.2 2.6 295 -999
2008-04-17 07:10:36 51°13.671 2°55.932 112.8 2.9 294 -999
2008-04-17 07:10:41 51°13.673 2°55.925 111.4 3.2 293 -999
2008-04-17 07:10:46 51°13.674 2°55.918 109.8 3.4 290 -999
2008-04-17 07:10:51 51°13.676 2°55.91 108.6 3.7 289 -999
2008-04-17 07:10:56 51°13.678 2°55.902 107.6 3.9 287 -999
2008-04-17 07:11:01 51°13.679 2°55.893 107.1 4.1 286 -999
2008-04-17 07:11:06 51°13.681 2°55.884 106.5 4.3 285 -999
2008-04-17 07:11:11 51°13.682 2°55.875 106 4.3 285 -999
2008-04-17 07:11:16 51°13.684 2°55.865 105.7 4.5 285 -999
2008-04-17 07:11:21 51°13.686 2°55.855 105.4 4.6 285 -999
2008-04-17 07:11:26 51°13.687 2°55.845 105.1 4.6 284 -999
2008-04-17 07:11:31 51°13.689 2°55.836 105 4.6 285 -999
2008-04-17 07:11:36 51°13.69 2°55.826 104.8 4.5 285 -999
2008-04-17 07:11:41 51°13.692 2°55.817 104.4 4.3 285 -999
2008-04-17 07:11:46 51°13.693 2°55.808 104.4 4.1 285 -999
2008-04-17 07:11:51 51°13.695 2°55.8 104.4 3.9 284 -999
2008-04-17 07:11:56 51°13.696 2°55.792 104.4 3.8 285 -999
2008-04-17 07:12:01 51°13.697 2°55.785 104.4 3.4 285 -999
2008-04-17 07:12:06 51°13.698 2°55.779 104.3 2.6 283 -999
2008-04-17 07:12:11 51°13.699 2°55.776 102 1.7 288 -999
2008-04-17 07:12:16 51°13.699 2°55.774 97.9 0.8 292 -999
2008-04-17 07:12:21 51°13.7 2°55.774 92.1 0.4 3 -999
2008-04-17 07:12:26 51°13.7 2°55.775 84.7 0.6 67 12.1
2008-04-17 07:12:31 51°13.701 2°55.776 78.3 0.6 36 -999
2008-04-17 07:12:36 51°13.701 2°55.777 72.2 0.3 46 -999
2008-04-17 07:12:41 51°13.701 2°55.777 67.4 0.2 303 -999
2008-04-17 07:12:46 51°13.701 2°55.775 64.5 0.6 255 -999
2008-04-17 07:12:51 51°13.701 2°55.773 61.6 1.1 249 12.2
2008-04-17 07:12:56 51°13.7 2°55.77 59.4 1.5 247 -999
2008-04-17 07:13:01 51°13.698 2°55.766 57.4 1.9 243 -999
2008-04-17 07:13:06 51°13.697 2°55.762 55.8 2.3 241 13.3
2008-04-17 07:13:11 51°13.695 2°55.757 54.1 2.5 239 -999
2008-04-17 07:13:16 51°13.693 2°55.752 52.2 2.4 238 -999
2008-04-17 07:13:21 51°13.691 2°55.748 50.4 2.3 236 -999
2008-04-17 07:13:26 51°13.69 2°55.744 49 2.1 237 -999
2008-04-17 07:13:31 51°13.689 2°55.741 47.6 1.6 238 -999
2008-04-17 07:13:36 51°13.688 2°55.739 45.6 0.9 249 -999
2008-04-17 07:13:41 51°13.689 2°55.739 40.5 0.4 325 -999
2008-04-17 07:13:46 51°13.69 2°55.739 33.7 1.1 5 -999
2008-04-17 07:13:51 51°13.693 2°55.74 25.3 1.8 6 -999
2008-04-17 07:13:56 51°13.696 2°55.74 15.9 2.5 -999 -999
2008-04-17 07:14:01 51°13.701 2°55.739 6.2 3.1 353 -999
2008-04-17 07:14:06 51°13.705 2°55.737 356.3 3.2 347 -999
2008-04-17 07:14:11 51°13.709 2°55.735 348.2 3.2 340 -999
2008-04-17 07:14:16 51°13.713 2°55.733 344.4 3.2 340 4.9
2008-04-17 07:14:21 51°13.717 2°55.73 341.2 3.2 336 -999
2008-04-17 07:14:26 51°13.722 2°55.727 338.4 3.3 336 -999
2008-04-17 07:14:31 51°13.726 2°55.723 336.9 3.3 334 -999
2008-04-17 07:14:36 51°13.73 2°55.72 335.3 3.4 332 11.3
2008-04-17 07:14:41 51°13.734 2°55.716 333.8 3.5 332 11
2008-04-17 07:14:46 51°13.738 2°55.712 333 3.5 331 10.7
2008-04-17 07:14:51 51°13.743 2°55.708 332.3 3.8 331 10.4
2008-04-17 07:14:56 51°13.748 2°55.704 332.2 4.2 330 10.4
2008-04-17 07:15:01 51°13.753 2°55.699 332.1 4.3 330 10.4
2008-04-17 07:15:06 51°13.759 2°55.694 332.2 4.5 330 10.4
2008-04-17 07:15:11 51°13.764 2°55.689 332.4 4.6 331 10.4
2008-04-17 07:15:16 51°13.77 2°55.684 332.6 4.7 330 10.3
2008-04-17 07:15:21 51°13.776 2°55.678 332.4 4.7 330 10.2
2008-04-17 07:15:26 51°13.782 2°55.673 332.3 4.8 331 10.2
2008-04-17 07:15:31 51°13.787 2°55.668 332.6 4.8 332 10.2
2008-04-17 07:15:36 51°13.793 2°55.663 333 4.8 332 10.2
2008-04-17 07:15:41 51°13.799 2°55.658 333.6 4.9 333 10.1
2008-04-17 07:15:46 51°13.806 2°55.654 333.9 5 335 10.1
2008-04-17 07:15:51 51°13.812 2°55.649 334.5 5.1 335 10
2008-04-17 07:15:56 51°13.818 2°55.644 334.8 5.1 335 10.1
2008-04-17 07:16:01 51°13.824 2°55.639 334.7 5.2 334 10.2
2008-04-17 07:16:06 51°13.831 2°55.634 334 5.3 334 10.2
2008-04-17 07:16:11 51°13.838 2°55.629 333.8 5.4 334 -999
2008-04-17 07:16:16 51°13.845 2°55.623 334.1 5.4 334 10.3
2008-04-17 07:16:21 51°13.852 2°55.618 334.6 5.5 335 10.1
2008-04-17 07:16:26 51°13.859 2°55.613 335 5.6 334 10.3
2008-04-17 07:16:31 51°13.866 2°55.607 335.2 5.6 335 -999
2008-04-17 07:16:36 51°13.873 2°55.602 335.4 5.7 334 10.6
2008-04-17 07:16:40 51°13.878 2°55.598 335.4 5.7 334 10.7
2008-04-17 07:16:46 51°13.887 2°55.591 335.3 5.8 334 -999
2008-04-17 07:16:51 51°13.894 2°55.585 335.4 5.8 335 11
2008-04-17 07:16:56 51°13.902 2°55.58 335.8 5.8 335 -999
2008-04-17 07:17:01 51°13.909 2°55.575 336 5.7 335 -999
2008-04-17 07:17:06 51°13.916 2°55.569 336 5.6 335 -999
2008-04-17 07:17:11 51°13.923 2°55.564 336.2 5.5 335 -999
2008-04-17 07:17:16 51°13.929 2°55.559 336.2 5.4 335 -999
2008-04-17 07:17:21 51°13.936 2°55.554 336.2 5.3 334 11.3
2008-04-17 07:17:26 51°13.943 2°55.549 336.2 5.2 335 -999
2008-04-17 07:17:31 51°13.949 2°55.544 336.2 5.2 334 -999
2008-04-17 07:17:36 51°13.956 2°55.539 336 5.1 334 -999
2008-04-17 07:17:41 51°13.962 2°55.534 336 5 335 11
2008-04-17 07:17:46 51°13.968 2°55.53 336.2 5 335 11
2008-04-17 07:17:51 51°13.974 2°55.525 336.6 4.9 336 10.9
2008-04-17 07:17:56 51°13.98 2°55.521 336.8 4.9 336 -999
2008-04-17 07:18:01 51°13.987 2°55.516 336.7 4.8 336 -999
2008-04-17 07:18:06 51°13.993 2°55.512 336.4 4.8 335 -999
2008-04-17 07:18:11 51°13.999 2°55.508 336.4 4.8 337 -999
2008-04-17 07:18:16 51°14.005 2°55.504 336.6 4.7 336 -999
2008-04-17 07:18:21 51°14.011 2°55.5 336.7 4.7 336 -999
2008-04-17 07:18:26 51°14.016 2°55.495 336.6 4.6 336 -999
2008-04-17 07:18:31 51°14.022 2°55.491 336 4.6 335 -999
2008-04-17 07:18:36 51°14.028 2°55.487 335.5 4.6 335 -999
2008-04-17 07:18:41 51°14.034 2°55.482 335.2 4.6 335 -999
2008-04-17 07:18:46 51°14.04 2°55.478 335 4.7 334 11
2008-04-17 07:18:51 51°14.046 2°55.472 334.8 4.8 334 -999
2008-04-17 07:18:56 51°14.052 2°55.466 334.7 4.9 334 -999
2008-04-17 07:19:01 51°14.058 2°55.461 334.7 5 334 -999
2008-04-17 07:19:06 51°14.064 2°55.456 334.9 5.1 334 -999
2008-04-17 07:19:11 51°14.071 2°55.452 335.2 5.1 334 -999
2008-04-17 07:19:16 51°14.077 2°55.447 335.2 5.1 333 -999
2008-04-17 07:19:21 51°14.083 2°55.442 334.5 5.2 332 -999
2008-04-17 07:19:26 51°14.09 2°55.437 333.5 5.2 331 -999
2008-04-17 07:19:31 51°14.096 2°55.431 333 5.3 331 -999
2008-04-17 07:19:36 51°14.103 2°55.425 333.1 5.3 331 -999
2008-04-17 07:19:41 51°14.109 2°55.42 333.8 5.4 332 -999
2008-04-17 07:19:46 51°14.116 2°55.415 334.6 5.4 332 10.8
2008-04-17 07:19:51 51°14.123 2°55.409 335.2 5.4 333 10.9
2008-04-17 07:19:56 51°14.13 2°55.403 335.3 5.5 333 -999
2008-04-17 07:20:01 51°14.137 2°55.396 335.2 6 333 -999
2008-04-17 07:20:06 51°14.145 2°55.39 334.4 6.3 332 10.9
2008-04-17 07:20:11 51°14.153 2°55.383 333.3 6.6 331 -999
2008-04-17 07:20:16 51°14.162 2°55.376 332 7 331 -999
2008-04-17 07:20:21 51°14.17 2°55.368 331.2 7.3 330 -999
2008-04-17 07:20:26 51°14.179 2°55.359 330.1 7.5 329 -999
2008-04-17 07:20:31 51°14.188 2°55.35 329.2 7.8 328 -999
2008-04-17 07:20:36 51°14.197 2°55.341 328.5 7.9 327 -999
2008-04-17 07:20:41 51°14.207 2°55.331 327.9 8 326 -999
2008-04-17 07:20:46 51°14.215 2°55.32 325.8 8.1 323 -999
2008-04-17 07:20:51 51°14.224 2°55.308 323.3 8.2 321 -999
2008-04-17 07:20:56 51°14.233 2°55.296 321 8.3 319 -999
2008-04-17 07:21:01 51°14.241 2°55.284 319.7 8.3 318 10.8
2008-04-17 07:21:06 51°14.25 2°55.271 318.5 8.4 316 10.8
2008-04-17 07:21:11 51°14.258 2°55.258 317.3 8.4 314 10.8
2008-04-17 07:21:16 51°14.266 2°55.244 315.7 8.4 313 10.1
2008-04-17 07:21:21 51°14.273 2°55.23 313.6 8.4 311 10.1
2008-04-17 07:21:26 51°14.281 2°55.215 311.8 8.4 309 10
2008-04-17 07:21:31 51°14.288 2°55.201 310.5 8.5 309 10
2008-04-17 07:21:36 51°14.295 2°55.186 309.8 8.5 307 9.8
2008-04-17 07:21:40 51°14.301 2°55.174 308.6 8.5 308 9.9
2008-04-17 07:21:46 51°14.309 2°55.156 307.8 8.5 306 10
2008-04-17 07:21:51 51°14.317 2°55.141 307 8.5 308 10.1
2008-04-17 07:21:56 51°14.324 2°55.126 307.1 8.6 308 10.8
2008-04-17 07:22:01 51°14.331 2°55.111 308.1 8.6 309 10.7
2008-04-17 07:22:06 51°14.339 2°55.096 308.5 8.6 309 10.9
2008-04-17 07:22:11 51°14.347 2°55.082 308.8 8.6 309 10.8
2008-04-17 07:22:16 51°14.354 2°55.067 309.1 8.7 309 10.5
2008-04-17 07:22:21 51°14.361 2°55.052 309.1 8.7 308 10.9
2008-04-17 07:22:26 51°14.369 2°55.037 309.1 8.7 307 11.3
2008-04-17 07:22:31 51°14.376 2°55.021 308.6 8.8 307 11
2008-04-17 07:22:35 51°14.382 2°55.008 308.5 8.9 306 10.4
2008-04-17 07:22:41 51°14.391 2°54.989 308.7 9 307 10.2
2008-04-17 07:22:46 51°14.399 2°54.973 309.9 9.1 307 10.3
2008-04-17 07:22:51 51°14.407 2°54.957 310.7 9.2 309 10.4
2008-04-17 07:22:56 51°14.415 2°54.942 312.5 9.3 311 10.5
2008-04-17 07:23:01 51°14.424 2°54.926 314.5 9.3 312 10.7
2008-04-17 07:23:06 51°14.433 2°54.911 316 9.5 314 10.6
2008-04-17 07:23:11 51°14.443 2°54.897 317.3 9.6 316 10.7
2008-04-17 07:23:16 51°14.453 2°54.883 319.1 9.5 318 10.5
2008-04-17 07:23:21 51°14.463 2°54.869 321.8 9.5 319 10.6
2008-04-17 07:23:26 51°14.473 2°54.855 323.5 9.6 320 10.6
2008-04-17 07:23:31 51°14.483 2°54.842 324 9.6 320 10.5
2008-04-17 07:23:36 51°14.493 2°54.828 324.7 9.7 320 10.6
2008-04-17 07:23:40 51°14.502 2°54.817 325.1 9.8 321 10.2
2008-04-17 07:23:46 51°14.515 2°54.801 325.7 9.8 322 10.1
2008-04-17 07:23:51 51°14.526 2°54.788 326.3 9.8 323 10.3
2008-04-17 07:23:56 51°14.537 2°54.775 327.1 9.8 323 9.9
2008-04-17 07:24:01 51°14.547 2°54.763 328.5 9.7 325 10
2008-04-17 07:24:06 51°14.558 2°54.75 330.1 9.7 325 10
2008-04-17 07:24:11 51°14.57 2°54.738 330.8 9.8 324 9.9
2008-04-17 07:24:16 51°14.58 2°54.725 330.6 9.8 324 9.8
2008-04-17 07:24:21 51°14.591 2°54.712 330.1 9.8 323 9.8
2008-04-17 07:24:26 51°14.602 2°54.699 329.3 9.9 323 9.7
2008-04-17 07:24:31 51°14.613 2°54.686 328.4 9.9 322 9.8
2008-04-17 07:24:36 51°14.624 2°54.672 327.8 9.8 323 9.9
2008-04-17 07:24:41 51°14.635 2°54.659 328 9.9 322 9.9
2008-04-17 07:24:46 51°14.646 2°54.645 327.9 9.9 321 9.8
2008-04-17 07:24:51 51°14.656 2°54.632 327.2 9.9 321 9.9
2008-04-17 07:24:56 51°14.667 2°54.618 327 9.9 321 9.8
2008-04-17 07:25:01 51°14.678 2°54.604 327 9.9 322 9.8
2008-04-17 07:25:06 51°14.689 2°54.591 327 9.9 322 9.9
2008-04-17 07:25:11 51°14.7 2°54.578 327.3 9.9 323 9.9
2008-04-17 07:25:16 51°14.711 2°54.564 328 9.9 322 9.8
2008-04-17 07:25:21 51°14.721 2°54.551 328 9.9 322 9.9
2008-04-17 07:25:26 51°14.732 2°54.537 327.8 9.9 322 9.9
2008-04-17 07:25:31 51°14.743 2°54.524 327.5 9.9 321 9.9
2008-04-17 07:25:36 51°14.754 2°54.51 327.4 9.9 321 9.9
2008-04-17 07:25:40 51°14.763 2°54.5 327.6 9.8 322 9.9
2008-04-17 07:25:46 51°14.776 2°54.484 328 9.9 323 9.8
2008-04-17 07:25:51 51°14.787 2°54.47 328.7 9.9 323 9.7
2008-04-17 07:25:56 51°14.798 2°54.457 329.2 9.9 323 10
2008-04-17 07:26:00 51°14.806 2°54.447 329.1 9.9 323 10
2008-04-17 07:26:06 51°14.819 2°54.431 328.7 9.9 323 9.9
2008-04-17 07:26:11 51°14.83 2°54.418 328.8 9.8 323 10
2008-04-17 07:26:16 51°14.841 2°54.405 329.2 9.8 323 9.9
2008-04-17 07:26:21 51°14.852 2°54.392 328.7 9.9 323 9.7
2008-04-17 07:26:26 51°14.863 2°54.378 328 9.9 323 9.6
2008-04-17 07:26:31 51°14.874 2°54.365 327.9 9.9 323 9.7
2008-04-17 07:26:36 51°14.884 2°54.351 328 9.8 321 9.7
2008-04-17 07:26:41 51°14.895 2°54.338 327.5 9.8 321 9.4
2008-04-17 07:26:46 51°14.905 2°54.324 326.9 9.8 320 9.2
2008-04-17 07:26:51 51°14.916 2°54.311 326.7 9.7 321 9.1
2008-04-17 07:26:56 51°14.927 2°54.298 327.2 9.7 323 9.1
2008-04-17 07:27:01 51°14.937 2°54.285 328.4 9.6 323 9.1
2008-04-17 07:27:06 51°14.948 2°54.272 328.8 9.6 323 9
2008-04-17 07:27:11 51°14.958 2°54.258 328.9 9.7 322 8.8
2008-04-17 07:27:16 51°14.969 2°54.245 328.1 9.8 321 8.6
2008-04-17 07:27:21 51°14.979 2°54.231 327.6 9.8 321 8.6
2008-04-17 07:27:26 51°14.989 2°54.218 327.2 9.7 321 8.5
2008-04-17 07:27:31 51°15 2°54.205 327.4 9.7 323 8.7
2008-04-17 07:27:36 51°15.011 2°54.192 328 9.7 324 8.8
2008-04-17 07:27:41 51°15.022 2°54.18 328.8 9.7 324 8.7
2008-04-17 07:27:46 51°15.033 2°54.167 329.1 9.6 323 8.6
2008-04-17 07:27:51 51°15.044 2°54.155 328.6 9.5 327 8.8
2008-04-17 07:27:56 51°15.056 2°54.146 331.2 9.4 331 8.8
2008-04-17 07:28:00 51°15.065 2°54.138 335.3 9.4 332 8.8
2008-04-17 07:28:06 51°15.08 2°54.127 337.9 9.4 334 9
2008-04-17 07:28:11 51°15.092 2°54.119 339.4 9.4 336 9.2
2008-04-17 07:28:16 51°15.104 2°54.11 341.1 9.5 337 9.2
2008-04-17 07:28:21 51°15.116 2°54.102 342.6 9.4 337 9.3
2008-04-17 07:28:26 51°15.128 2°54.095 343.4 9.5 338 9.3
2008-04-17 07:28:31 51°15.14 2°54.087 343.9 9.4 338 9.2
2008-04-17 07:28:36 51°15.153 2°54.079 344.5 9.4 339 9.4
2008-04-17 07:28:41 51°15.165 2°54.071 344.7 9.5 339 9.1
2008-04-17 07:28:46 51°15.177 2°54.063 344.8 9.5 338 9.2
2008-04-17 07:28:51 51°15.189 2°54.055 344.7 9.5 338 9.2
2008-04-17 07:28:56 51°15.201 2°54.046 344.1 9.5 336 9.4
2008-04-17 07:29:01 51°15.213 2°54.036 342.5 9.6 334 9.5
2008-04-17 07:29:06 51°15.224 2°54.026 340.8 9.6 333 9.2
2008-04-17 07:29:11 51°15.236 2°54.016 339.5 9.6 332 9.5
2008-04-17 07:29:16 51°15.248 2°54.006 338.8 9.6 332 9.5
2008-04-17 07:29:21 51°15.259 2°53.996 338.4 9.6 332 9.6
2008-04-17 07:29:26 51°15.271 2°53.986 338.2 9.6 331 9.6
2008-04-17 07:29:31 51°15.283 2°53.975 337.9 9.6 331 9.5
2008-04-17 07:29:36 51°15.294 2°53.965 337.4 9.6 331 9.4
2008-04-17 07:29:41 51°15.306 2°53.954 337.4 9.7 331 9.6
2008-04-17 07:29:46 51°15.318 2°53.944 337.3 9.7 331 9.7
2008-04-17 07:29:51 51°15.33 2°53.933 337.3 9.7 331 9.7
2008-04-17 07:29:55 51°15.339 2°53.925 337.3 9.6 330 9.9
2008-04-17 07:30:00 51°15.351 2°53.914 337 9.6 330 9.8
2008-04-17 07:30:06 51°15.365 2°53.901 336.9 9.7 330 9.8
2008-04-17 07:30:11 51°15.376 2°53.89 337.1 9.7 330 9.8
2008-04-17 07:30:16 51°15.388 2°53.879 337.1 9.6 330 9.8
2008-04-17 07:30:20 51°15.397 2°53.871 337.1 9.6 330 10.2
2008-04-17 07:30:26 51°15.411 2°53.858 337.2 9.7 330 10.1
2008-04-17 07:30:31 51°15.423 2°53.847 337.3 9.7 330 10
2008-04-17 07:30:36 51°15.434 2°53.837 337.3 9.7 330 10
2008-04-17 07:30:41 51°15.446 2°53.826 337.2 9.7 330 10.2
2008-04-17 07:30:46 51°15.458 2°53.815 337 9.7 330 10.2
2008-04-17 07:30:51 51°15.469 2°53.804 337 9.7 330 10.2
2008-04-17 07:30:56 51°15.481 2°53.794 337.3 9.7 330 10.2
2008-04-17 07:31:01 51°15.492 2°53.783 337.3 9.7 329 10.3
2008-04-17 07:31:06 51°15.504 2°53.772 337.3 9.7 330 10.3
2008-04-17 07:31:11 51°15.516 2°53.761 337.3 9.7 329 10.5
2008-04-17 07:31:16 51°15.527 2°53.75 337.1 9.7 330 10.7
2008-04-17 07:31:21 51°15.539 2°53.739 337.4 9.7 330 10.6
2008-04-17 07:31:26 51°15.551 2°53.729 337.9 9.7 330 10.8
2008-04-17 07:31:31 51°15.562 2°53.718 338.1 9.7 331 10.8
2008-04-17 07:31:36 51°15.574 2°53.708 338.2 9.7 331 10.7
2008-04-17 07:31:41 51°15.585 2°53.697 338.2 9.7 330 10.6
2008-04-17 07:31:46 51°15.597 2°53.686 337.9 9.6 330 10.5
2008-04-17 07:31:51 51°15.608 2°53.675 337.4 9.6 330 10.7
2008-04-17 07:31:55 51°15.618 2°53.667 337.3 9.6 330 10.7
2008-04-17 07:32:01 51°15.632 2°53.654 337.3 9.6 331 10.7
2008-04-17 07:32:06 51°15.643 2°53.644 337.6 9.6 331 10.7
2008-04-17 07:32:11 51°15.655 2°53.634 337.6 9.6 331 10.7
2008-04-17 07:32:16 51°15.666 2°53.624 338 9.6 331 10.6
2008-04-17 07:32:20 51°15.675 2°53.615 338.5 9.6 331 10.8
2008-04-17 07:32:26 51°15.689 2°53.603 338.5 9.6 331 10.8
2008-04-17 07:32:31 51°15.701 2°53.593 338.5 9.5 332 10.9
2008-04-17 07:32:36 51°15.713 2°53.583 338.6 9.6 331 10.9
2008-04-17 07:32:41 51°15.724 2°53.573 338.3 9.6 330 11
2008-04-17 07:32:46 51°15.736 2°53.562 337.4 9.6 330 11
2008-04-17 07:32:51 51°15.747 2°53.552 337 9.5 330 11
2008-04-17 07:32:56 51°15.759 2°53.541 337 9.6 330 11.1
2008-04-17 07:33:01 51°15.77 2°53.531 337.6 9.6 331 11.1
2008-04-17 07:33:06 51°15.782 2°53.521 338.2 9.6 331 11.1
2008-04-17 07:33:11 51°15.793 2°53.51 338.2 9.5 331 11.1
2008-04-17 07:33:16 51°15.805 2°53.5 338.1 9.5 330 11.2
2008-04-17 07:33:21 51°15.816 2°53.489 337.8 9.5 330 11.2
2008-04-17 07:33:26 51°15.828 2°53.478 337.4 9.5 330 11.3
2008-04-17 07:33:31 51°15.839 2°53.468 337.4 9.6 330 11.3
2008-04-17 07:33:36 51°15.851 2°53.457 337.4 9.6 330 11.1
2008-04-17 07:33:41 51°15.863 2°53.446 337.3 9.9 329 11.3
2008-04-17 07:33:46 51°15.875 2°53.435 336.8 9.9 330 11.2
2008-04-17 07:33:51 51°15.887 2°53.424 337.1 10.3 331 11.4
2008-04-17 07:33:56 51°15.9 2°53.412 337.5 10.7 330 11.4
2008-04-17 07:34:01 51°15.913 2°53.401 337.3 10.9 332 11.4
2008-04-17 07:34:06 51°15.927 2°53.39 337.5 11.1 332 11.5
2008-04-17 07:34:11 51°15.941 2°53.38 339.1 11.3 335 11.5
2008-04-17 07:34:15 51°15.953 2°53.371 340.7 11.5 335 11.5
2008-04-17 07:34:21 51°15.971 2°53.359 341.7 11.7 336 11.5
2008-04-17 07:34:26 51°15.986 2°53.349 342.5 11.8 337 11.4
2008-04-17 07:34:31 51°16.001 2°53.339 343.4 11.7 339 11.6
2008-04-17 07:34:36 51°16.016 2°53.329 344.4 11.8 338 11.6
2008-04-17 07:34:40 51°16.029 2°53.322 344.6 11.8 338 11.6
2008-04-17 07:34:46 51°16.047 2°53.31 344.7 11.9 338 11.5
2008-04-17 07:34:51 51°16.062 2°53.3 344.7 11.9 338 11.7
2008-04-17 07:34:56 51°16.077 2°53.29 344.7 11.9 337 11.5
2008-04-17 07:35:01 51°16.093 2°53.28 344.4 11.9 338 11.6
2008-04-17 07:35:06 51°16.108 2°53.27 344.3 11.9 337 11.6
2008-04-17 07:35:11 51°16.123 2°53.259 343.9 11.9 336 11.6
2008-04-17 07:35:16 51°16.138 2°53.249 343.2 11.9 336 11.7
2008-04-17 07:35:21 51°16.153 2°53.237 342.7 11.9 336 11.8
2008-04-17 07:35:26 51°16.168 2°53.226 341.8 12 335 11.7
2008-04-17 07:35:31 51°16.183 2°53.215 341.3 12 334 11.6
2008-04-17 07:35:36 51°16.198 2°53.203 340.6 12 335 11.7
2008-04-17 07:35:41 51°16.213 2°53.192 340.5 12 334 11.6
2008-04-17 07:35:46 51°16.228 2°53.18 340.5 12 334 11.6
2008-04-17 07:35:51 51°16.243 2°53.168 340.1 11.9 332 11.7
2008-04-17 07:35:56 51°16.257 2°53.156 339.3 12 333 11.8
2008-04-17 07:36:01 51°16.272 2°53.143 338.9 12 332 11.7
2008-04-17 07:36:06 51°16.287 2°53.13 338.6 11.9 332 11.9
2008-04-17 07:36:11 51°16.301 2°53.118 338.3 11.9 332 11.9
2008-04-17 07:36:15 51°16.313 2°53.108 337.8 11.8 332 11.6
2008-04-17 07:36:21 51°16.33 2°53.093 336.9 11.9 331 11.7
2008-04-17 07:36:26 51°16.344 2°53.08 336 11.9 331 11.8
2008-04-17 07:36:31 51°16.359 2°53.067 335.4 11.8 330 11.8
2008-04-17 07:36:36 51°16.373 2°53.054 334.8 11.8 330 11.8
2008-04-17 07:36:41 51°16.387 2°53.041 334.6 11.8 330 11.8
2008-04-17 07:36:46 51°16.401 2°53.028 334.2 11.9 330 12
2008-04-17 07:36:51 51°16.416 2°53.015 334.5 11.9 329 11.9
2008-04-17 07:36:56 51°16.43 2°53.001 334.2 11.9 329 11.9
2008-04-17 07:37:01 51°16.444 2°52.986 333.2 11.9 327 11.7
2008-04-17 07:37:06 51°16.458 2°52.973 331.9 11.8 327 11.8
2008-04-17 07:37:11 51°16.471 2°52.958 331.6 11.8 327 11.9
2008-04-17 07:37:16 51°16.485 2°52.944 331.1 11.8 327 11.8
2008-04-17 07:37:21 51°16.497 2°52.929 330.1 11.3 323 11.8
2008-04-17 07:37:26 51°16.509 2°52.915 328.6 10.3 323 11.8
2008-04-17 07:37:31 51°16.519 2°52.902 327.9 9.6 321 11.8
2008-04-17 07:37:36 51°16.529 2°52.889 327 9.1 321 11.8
2008-04-17 07:37:40 51°16.535 2°52.878 325.7 8.5 316 11.8
2008-04-17 07:37:46 51°16.545 2°52.864 323.2 8 316 12
2008-04-17 07:37:51 51°16.552 2°52.851 321 7.6 312 12.1
2008-04-17 07:37:56 51°16.559 2°52.839 319.3 7.4 313 11.8
2008-04-17 07:38:01 51°16.565 2°52.827 318.2 7.1 310 11.9
2008-04-17 07:38:06 51°16.571 2°52.816 317.2 6.9 310 12
2008-04-17 07:38:11 51°16.576 2°52.804 316.5 6.8 308 11.8
2008-04-17 07:38:16 51°16.582 2°52.793 316 6.7 309 12
2008-04-17 07:38:21 51°16.588 2°52.78 315.4 6.8 307 11.9
2008-04-17 07:38:26 51°16.594 2°52.768 315.2 6.9 309 11.9
2008-04-17 07:38:31 51°16.6 2°52.756 315.7 7.1 309 11.8
2008-04-17 07:38:36 51°16.607 2°52.744 315.9 7.2 310 11.7
2008-04-17 07:38:41 51°16.613 2°52.731 316.4 7.3 310 11.7
2008-04-17 07:38:46 51°16.619 2°52.719 316.7 7.3 310 11.4
2008-04-17 07:38:51 51°16.626 2°52.707 317 7.2 310 11.7
2008-04-17 07:38:56 51°16.632 2°52.695 317.1 7.3 311 11.6
2008-04-17 07:39:01 51°16.639 2°52.682 317.1 7.3 310 11.5
2008-04-17 07:39:06 51°16.646 2°52.67 317.1 7.4 311 11.5
2008-04-17 07:39:11 51°16.653 2°52.657 317 7.4 311 11.4
2008-04-17 07:39:16 51°16.659 2°52.645 317.1 7.5 311 11.3
2008-04-17 07:39:21 51°16.666 2°52.632 317.1 7.6 310 11.3
2008-04-17 07:39:26 51°16.673 2°52.619 317.1 7.6 310 11
2008-04-17 07:39:31 51°16.68 2°52.606 316.9 7.6 310 11
2008-04-17 07:39:36 51°16.686 2°52.593 316.5 7.6 310 10.9
2008-04-17 07:39:40 51°16.692 2°52.583 316.2 7.6 309 10.8
2008-04-17 07:39:46 51°16.7 2°52.567 316.3 7.5 310 10.7
2008-04-17 07:39:51 51°16.706 2°52.554 316.3 7.6 309 10.3
2008-04-17 07:39:56 51°16.713 2°52.542 316.5 7.6 311 10.3
2008-04-17 07:40:01 51°16.72 2°52.529 317 7.6 310 10.2
2008-04-17 07:40:06 51°16.727 2°52.516 317.1 7.6 311 10.2
2008-04-17 07:40:11 51°16.734 2°52.504 317.7 7.6 312 10.3
2008-04-17 07:40:16 51°16.741 2°52.491 317.8 7.7 311 10.2
2008-04-17 07:40:21 51°16.748 2°52.478 317.6 7.7 311 10.1
2008-04-17 07:40:26 51°16.755 2°52.465 317.3 7.7 311 10.1
2008-04-17 07:40:31 51°16.762 2°52.453 317.2 7.6 312 10.1
2008-04-17 07:40:36 51°16.769 2°52.44 317.7 7.7 311 10.3
2008-04-17 07:40:41 51°16.776 2°52.427 317.4 7.7 311 10.4
2008-04-17 07:40:46 51°16.782 2°52.414 317.3 7.6 310 10.4
2008-04-17 07:40:51 51°16.789 2°52.401 317.2 7.7 310 10.2
2008-04-17 07:40:56 51°16.796 2°52.389 317.1 7.6 309 10.1
2008-04-17 07:41:01 51°16.803 2°52.376 317.3 7.6 310 10.1
2008-04-17 07:41:06 51°16.809 2°52.363 317.3 7.5 310 10.1
2008-04-17 07:41:11 51°16.816 2°52.35 317.3 7.5 311 10
2008-04-17 07:41:16 51°16.823 2°52.338 317.2 7.3 311 10.1
2008-04-17 07:41:21 51°16.829 2°52.326 317.6 7.1 310 10.2
2008-04-17 07:41:26 51°16.835 2°52.315 317.8 6.8 311 10.2
2008-04-17 07:41:31 51°16.841 2°52.304 317.8 6.5 311 10.2
2008-04-17 07:41:36 51°16.847 2°52.293 318.2 6.4 311 10.1
2008-04-17 07:41:40 51°16.851 2°52.285 318.7 6.2 311 10.4
2008-04-17 07:41:46 51°16.858 2°52.273 318.8 6 311 10.3
2008-04-17 07:41:51 51°16.863 2°52.263 319.1 5.8 311 10.1
2008-04-17 07:41:56 51°16.869 2°52.254 319.2 5.8 311 10.2
2008-04-17 07:42:01 51°16.874 2°52.244 319.3 5.6 311 10.3
2008-04-17 07:42:06 51°16.878 2°52.235 319.7 5.5 311 10.3
2008-04-17 07:42:11 51°16.884 2°52.226 319.7 5.4 311 10.4
2008-04-17 07:42:16 51°16.888 2°52.217 319.5 5.4 309 10.4
2008-04-17 07:42:21 51°16.893 2°52.208 319 5.2 309 10.4
2008-04-17 07:42:26 51°16.897 2°52.199 318.7 5.2 308 10.4
2008-04-17 07:42:31 51°16.902 2°52.19 318 5.3 309 10.5
2008-04-17 07:42:36 51°16.907 2°52.18 317.8 5.4 307 10.4
2008-04-17 07:42:41 51°16.911 2°52.17 317.5 5.5 307 10.5
2008-04-17 07:42:46 51°16.916 2°52.16 316.9 5.7 306 10.2
2008-04-17 07:42:51 51°16.921 2°52.15 316.4 5.7 307 10.3
2008-04-17 07:42:56 51°16.926 2°52.14 316.8 5.8 307 10.4
2008-04-17 07:43:01 51°16.931 2°52.13 316.7 5.8 308 10.5
2008-04-17 07:43:06 51°16.935 2°52.119 316.6 5.8 308 10.6
2008-04-17 07:43:11 51°16.941 2°52.11 317.2 5.8 310 10.6
2008-04-17 07:43:16 51°16.946 2°52.099 317.8 5.8 309 10.6
2008-04-17 07:43:21 51°16.951 2°52.089 318 6 310 10.4
2008-04-17 07:43:26 51°16.957 2°52.079 318.1 6 310 10.4
2008-04-17 07:43:31 51°16.962 2°52.069 318.1 6 310 10.5
2008-04-17 07:43:36 51°16.967 2°52.059 318.3 6 309 10.5
2008-04-17 07:43:41 51°16.973 2°52.049 318.9 6 311 10.7
2008-04-17 07:43:46 51°16.978 2°52.039 319.7 6 313 10.6
2008-04-17 07:43:51 51°16.984 2°52.03 320.7 5.9 315 10.6
2008-04-17 07:43:56 51°16.99 2°52.021 322.8 5.9 317 10.8
2008-04-17 07:44:00 51°16.995 2°52.015 325.2 5.7 320 11
2008-04-17 07:44:06 51°17.003 2°52.006 328 5.6 324 10.7
2008-04-17 07:44:11 51°17.009 2°52 331 5.2 332 10.9
2008-04-17 07:44:16 51°17.015 2°51.996 337.3 5 337 11
2008-04-17 07:44:21 51°17.022 2°51.993 343.9 4.9 342 11.1
2008-04-17 07:44:26 51°17.029 2°51.99 349.4 4.9 346 10.9
2008-04-17 07:44:31 51°17.035 2°51.988 354.7 4.9 350 11
2008-04-17 07:44:36 51°17.042 2°51.986 357.1 4.9 349 11.2
2008-04-17 07:44:41 51°17.049 2°51.985 358.2 5 350 11.2
2008-04-17 07:44:46 51°17.056 2°51.983 358.5 5.1 350 10.9
2008-04-17 07:44:51 51°17.063 2°51.981 358.5 5.1 350 10.8
2008-04-17 07:44:56 51°17.07 2°51.979 358.3 5.1 350 11.2
2008-04-17 07:45:01 51°17.077 2°51.977 358 5.1 349 11
2008-04-17 07:45:06 51°17.084 2°51.975 357.7 5.2 351 11.1
2008-04-17 07:45:11 51°17.091 2°51.973 357.4 5.2 351 11.2
2008-04-17 07:45:16 51°17.099 2°51.971 357.2 5.4 351 11.1
2008-04-17 07:45:21 51°17.106 2°51.969 357.3 5.4 351 11.2
2008-04-17 07:45:26 51°17.113 2°51.968 357.5 5.2 350 11.1
2008-04-17 07:45:31 51°17.12 2°51.966 357.5 5 349 11.2
2008-04-17 07:45:36 51°17.127 2°51.964 357.2 4.9 348 10.9
2008-04-17 07:45:41 51°17.133 2°51.962 357 4.8 348 11.1
2008-04-17 07:45:46 51°17.139 2°51.96 356.6 4.6 349 11.1
2008-04-17 07:45:51 51°17.145 2°51.958 356.9 4.2 350 11.1
2008-04-17 07:45:56 51°17.151 2°51.957 358.2 4.1 352 11.1
2008-04-17 07:46:00 51°17.155 2°51.957 1.5 3.7 359 11.3
2008-04-17 07:46:06 51°17.161 2°51.957 5.9 3.5 2 11.4
2008-04-17 07:46:11 51°17.165 2°51.958 10.2 3.3 6 11.3
2008-04-17 07:46:16 51°17.169 2°51.959 14.1 3.2 9 11.3
2008-04-17 07:46:21 51°17.174 2°51.96 17.4 3.1 14 11.3
2008-04-17 07:46:26 51°17.177 2°51.962 20.6 3 19 11.3
2008-04-17 07:46:31 51°17.181 2°51.963 23.7 2.9 18 11.4
2008-04-17 07:46:36 51°17.185 2°51.965 25.8 2.8 18 11.4
2008-04-17 07:46:41 51°17.188 2°51.968 26.5 2.8 21 11.4
2008-04-17 07:46:46 51°17.192 2°51.969 26.7 2.7 19 11.3
2008-04-17 07:46:51 51°17.195 2°51.972 27 2.6 20 11.5
2008-04-17 07:46:56 51°17.199 2°51.974 27.5 2.6 23 11.6
2008-04-17 07:47:01 51°17.202 2°51.976 27.9 2.6 22 11.3
2008-04-17 07:47:06 51°17.206 2°51.979 28.1 2.7 20 11
2008-04-17 07:47:11 51°17.21 2°51.981 28.1 2.6 20 11.1
2008-04-17 07:47:16 51°17.213 2°51.983 27.7 2.7 20 11.2
2008-04-17 07:47:21 51°17.217 2°51.985 27.3 2.6 20 11
2008-04-17 07:47:26 51°17.22 2°51.987 27.1 2.6 21 11
2008-04-17 07:47:31 51°17.223 2°51.99 27.9 2.5 24 10.6
2008-04-17 07:47:36 51°17.226 2°51.992 29.8 2.4 27 10.7
2008-04-17 07:47:41 51°17.229 2°51.995 32.6 2.3 33 11.2
2008-04-17 07:47:46 51°17.231 2°51.998 36.1 2.3 40 11.2
2008-04-17 07:47:51 51°17.233 2°52.002 39.9 2.2 45 11.3
2008-04-17 07:47:55 51°17.235 2°52.004 43.8 2.2 43 11.5
2008-04-17 07:48:01 51°17.238 2°52.009 47.2 2.2 50 11.3
2008-04-17 07:48:06 51°17.239 2°52.013 50 2.2 51 11.5
2008-04-17 07:48:11 51°17.241 2°52.017 52 2.2 53 11.3
2008-04-17 07:48:16 51°17.243 2°52.02 53.1 2.2 50 11.4
2008-04-17 07:48:20 51°17.245 2°52.024 52.2 2.3 51 11.4
2008-04-17 07:48:26 51°17.247 2°52.028 50 2.2 47 11.2
2008-04-17 07:48:31 51°17.249 2°52.032 48.6 2.2 47 11.2
2008-04-17 07:48:36 51°17.252 2°52.035 46.7 2.4 42 11.3
2008-04-17 07:48:41 51°17.255 2°52.039 44.4 2.6 40 11.3
2008-04-17 07:48:46 51°17.258 2°52.043 42.2 2.8 36 11.1
2008-04-17 07:48:51 51°17.261 2°52.046 39.4 3 31 11.1
2008-04-17 07:48:56 51°17.265 2°52.05 36.4 3.1 30 10.9
2008-04-17 07:49:01 51°17.269 2°52.053 34 3.2 27 10.8
2008-04-17 07:49:06 51°17.273 2°52.056 31.9 3.4 26 11
2008-04-17 07:49:11 51°17.278 2°52.059 30.4 3.4 26 11
2008-04-17 07:49:16 51°17.282 2°52.062 28.9 3.6 22 11.4
2008-04-17 07:49:21 51°17.287 2°52.066 28.2 3.7 27 11.3
2008-04-17 07:49:26 51°17.291 2°52.07 28.9 3.5 30 11.3
2008-04-17 07:49:31 51°17.294 2°52.075 31.3 3.4 37 11.3
2008-04-17 07:49:36 51°17.298 2°52.08 36.6 3.4 42 11.2
2008-04-17 07:49:41 51°17.301 2°52.085 41.7 3.2 44 11.1
2008-04-17 07:49:46 51°17.303 2°52.09 45.8 2.9 52 11.3
2008-04-17 07:49:51 51°17.306 2°52.095 49.3 2.8 53 11.4
2008-04-17 07:49:56 51°17.308 2°52.1 51.5 2.7 51 11.3
2008-04-17 07:50:01 51°17.31 2°52.104 52.9 2.6 58 11.1
2008-04-17 07:50:06 51°17.312 2°52.109 52.9 2.4 57 11.3
2008-04-17 07:50:11 51°17.313 2°52.113 52.9 2.4 57 11.1
2008-04-17 07:50:16 51°17.315 2°52.118 53.6 2.3 58 11.1
2008-04-17 07:50:21 51°17.316 2°52.122 53.9 2.2 62 11.2
2008-04-17 07:50:26 51°17.318 2°52.126 54.1 2.2 59 11.3
2008-04-17 07:50:31 51°17.32 2°52.129 54 2 54 11
2008-04-17 07:50:36 51°17.321 2°52.133 53.9 1.8 58 11.2
2008-04-17 07:50:41 51°17.322 2°52.135 53.6 1.4 51 11.3
2008-04-17 07:50:46 51°17.323 2°52.137 53 1 63 11.1
2008-04-17 07:50:51 51°17.323 2°52.138 53.6 0.6 70 11.1
2008-04-17 07:50:56 51°17.323 2°52.139 55.7 0.4 65 11.2
2008-04-17 07:51:01 51°17.323 2°52.14 57.7 0.4 69 11.1
2008-04-17 07:51:06 51°17.323 2°52.14 58.5 0.1 54 11.2
2008-04-17 07:51:11 51°17.323 2°52.14 58.9 0.2 120 11.2
2008-04-17 07:51:16 51°17.323 2°52.141 59.2 0.1 115 11.1
2008-04-17 07:51:21 51°17.323 2°52.141 59.8 0.2 157 11.1
2008-04-17 07:51:26 51°17.323 2°52.141 60.6 0.1 162 11.1
2008-04-17 07:51:31 51°17.322 2°52.141 60.7 0.2 196 11
2008-04-17 07:51:36 51°17.322 2°52.141 60.9 0.3 186 10.9
2008-04-17 07:51:41 51°17.321 2°52.14 60.9 0.3 210 11
2008-04-17 07:51:46 51°17.321 2°52.14 60.9 0.4 231 11.2
2008-04-17 07:51:51 51°17.32 2°52.139 61 0.4 214 11.1
2008-04-17 07:51:56 51°17.32 2°52.139 60.9 0.5 206 11
2008-04-17 07:52:01 51°17.319 2°52.138 60.4 0.5 215 11.1
2008-04-17 07:52:06 51°17.319 2°52.137 60.6 0.5 236 11.2
2008-04-17 07:52:11 51°17.318 2°52.137 60.5 0.6 219 11.2
2008-04-17 07:52:15 51°17.318 2°52.136 59.8 0.6 225 11.3
2008-04-17 07:52:21 51°17.317 2°52.134 59.5 0.6 225 11.2
2008-04-17 07:52:26 51°17.316 2°52.134 59 0.7 223 11
2008-04-17 07:52:31 51°17.316 2°52.132 58.2 0.7 239 11.2
2008-04-17 07:52:36 51°17.315 2°52.131 57.4 0.7 223 11.3
2008-04-17 07:52:41 51°17.315 2°52.13 56 0.7 227 11.1
2008-04-17 07:52:46 51°17.314 2°52.128 55 0.8 228 11
2008-04-17 07:52:51 51°17.313 2°52.127 53.6 0.9 233 11.1
2008-04-17 07:52:56 51°17.312 2°52.125 52.4 0.9 231 11.1
2008-04-17 07:53:01 51°17.312 2°52.123 51.1 1 234 11.1
2008-04-17 07:53:06 51°17.311 2°52.121 49.6 1 236 11.3
2008-04-17 07:53:11 51°17.31 2°52.119 47.9 1.1 237 11.3
2008-04-17 07:53:16 51°17.309 2°52.118 45.8 1.1 233 11.3
2008-04-17 07:53:21 51°17.308 2°52.116 43.7 1.1 235 11.1
2008-04-17 07:53:26 51°17.307 2°52.114 42 1.1 233 11.2
2008-04-17 07:53:31 51°17.307 2°52.112 39.7 1.2 237 11.3
2008-04-17 07:53:36 51°17.306 2°52.109 37.5 1.2 237 11.3
2008-04-17 07:53:41 51°17.305 2°52.107 35.3 1.2 237 11.4
2008-04-17 07:53:46 51°17.304 2°52.105 33 1.1 236 11.5
2008-04-17 07:53:51 51°17.303 2°52.104 31.1 0.9 238 11.3
2008-04-17 07:53:56 51°17.303 2°52.101 29.7 1 245 11.4
2008-04-17 07:54:01 51°17.302 2°52.1 28.7 0.9 248 11.3
2008-04-17 07:54:06 51°17.302 2°52.098 27.8 0.8 253 11.2
2008-04-17 07:54:11 51°17.302 2°52.097 27.1 0.6 275 11.3
2008-04-17 07:54:16 51°17.303 2°52.096 26.3 0.6 324 11.3
2008-04-17 07:54:21 51°17.304 2°52.097 26.7 1.1 7 11.3
2008-04-17 07:54:26 51°17.306 2°52.098 29.3 1.4 18 11.3
2008-04-17 07:54:31 51°17.308 2°52.099 34.4 1.4 33 11.3
2008-04-17 07:54:36 51°17.31 2°52.101 39.9 1.3 28 11.2
2008-04-17 07:54:41 51°17.311 2°52.103 43.9 1.3 43 11.2
2008-04-17 07:54:46 51°17.312 2°52.105 46.9 1.3 50 11.2
2008-04-17 07:54:51 51°17.313 2°52.107 49.7 1.3 51 11.4
2008-04-17 07:54:56 51°17.314 2°52.109 52.9 1.2 58 11.3
2008-04-17 07:55:01 51°17.315 2°52.112 56.1 1.3 62 11.2
2008-04-17 07:55:06 51°17.316 2°52.115 59.3 1.3 67 11.3
2008-04-17 07:55:11 51°17.316 2°52.118 62.2 1.5 74 11.2
2008-04-17 07:55:16 51°17.317 2°52.121 63.8 1.6 76 11.3
2008-04-17 07:55:21 51°17.317 2°52.124 65.7 1.5 75 11.3
2008-04-17 07:55:26 51°17.317 2°52.127 67.2 1.4 82 11.3
2008-04-17 07:55:31 51°17.318 2°52.131 68.1 1.5 87 11.3
2008-04-17 07:55:36 51°17.318 2°52.134 68.1 1.3 74 11.2
2008-04-17 07:55:40 51°17.318 2°52.136 67.4 1.3 80 11.1
2008-04-17 07:55:46 51°17.319 2°52.139 66 1.3 80 11.2
2008-04-17 07:55:51 51°17.319 2°52.142 63.6 1.1 77 11.2
2008-04-17 07:55:56 51°17.319 2°52.143 61.7 0.9 77 11.1
2008-04-17 07:56:01 51°17.319 2°52.145 61 0.6 81 11.1
2008-04-17 07:56:06 51°17.319 2°52.146 59.4 0.5 85 11.1
2008-04-17 07:56:11 51°17.32 2°52.146 58.7 0.3 61 11
2008-04-17 07:56:16 51°17.32 2°52.147 58.4 0.4 84 11.1
2008-04-17 07:56:21 51°17.32 2°52.148 57.2 0.4 83 11.1
2008-04-17 07:56:26 51°17.32 2°52.148 56.3 0.2 54 11.1
2008-04-17 07:56:31 51°17.32 2°52.149 55.3 0.2 63 11.2
2008-04-17 07:56:36 51°17.32 2°52.149 54.3 0.2 70 11.2
2008-04-17 07:56:41 51°17.32 2°52.149 52.9 0.1 104 11.3
2008-04-17 07:56:46 51°17.32 2°52.149 52.1 0.1 316 11.3
2008-04-17 07:56:51 51°17.32 2°52.149 51.6 -999 159 11.2
2008-04-17 07:56:56 51°17.32 2°52.149 50.6 -999 147 11.1
2008-04-17 07:57:01 51°17.32 2°52.149 49.7 0.1 330 11.2
2008-04-17 07:57:06 51°17.32 2°52.149 49 0.2 167 11.1
2008-04-17 07:57:11 51°17.32 2°52.148 47.3 0.2 247 11.2
2008-04-17 07:57:16 51°17.32 2°52.148 46.6 0.2 265 11.3
2008-04-17 07:57:21 51°17.32 2°52.148 45.9 0.1 220 11.1
2008-04-17 07:57:26 51°17.32 2°52.147 44.4 0.2 239 11.1
2008-04-17 07:57:31 51°17.32 2°52.146 44.1 0.2 266 11.1
2008-04-17 07:57:36 51°17.32 2°52.146 43.1 0.3 271 11
2008-04-17 07:57:40 51°17.32 2°52.145 42.2 0.3 255 11.1
2008-04-17 07:57:46 51°17.32 2°52.144 40.9 0.3 264 11.1
2008-04-17 07:57:51 51°17.32 2°52.143 39.8 0.4 279 11.1
2008-04-17 07:57:56 51°17.32 2°52.143 39.7 0.3 266 11.1
2008-04-17 07:58:01 51°17.319 2°52.142 38.8 0.4 260 11.1
2008-04-17 07:58:06 51°17.319 2°52.141 38.2 0.5 265 11.3
2008-04-17 07:58:11 51°17.319 2°52.14 38.4 0.4 257 11.3
2008-04-17 07:58:16 51°17.319 2°52.139 38.3 0.4 264 11.3
2008-04-17 07:58:21 51°17.319 2°52.138 38.4 0.5 261 11.3
2008-04-17 07:58:26 51°17.319 2°52.137 38.5 0.4 252 11.3
2008-04-17 07:58:31 51°17.319 2°52.136 38.4 0.5 260 11.3
2008-04-17 07:58:36 51°17.319 2°52.135 38.5 0.5 255 11.4
2008-04-17 07:58:41 51°17.318 2°52.134 38.8 0.4 240 11.4
2008-04-17 07:58:46 51°17.318 2°52.133 38.6 0.6 259 11.4
2008-04-17 07:58:51 51°17.318 2°52.132 38.8 0.5 242 11.4
2008-04-17 07:58:56 51°17.318 2°52.131 38.8 0.5 244 11.2
2008-04-17 07:59:01 51°17.318 2°52.13 38.8 0.5 257 11.2
2008-04-17 07:59:06 51°17.317 2°52.129 39.1 0.6 251 11.2
2008-04-17 07:59:11 51°17.317 2°52.128 39 0.5 239 11.2
2008-04-17 07:59:16 51°17.317 2°52.127 39 0.6 257 11.2
2008-04-17 07:59:21 51°17.316 2°52.126 39 0.5 239 11.3
2008-04-17 07:59:26 51°17.316 2°52.124 38.6 0.6 250 11.3
2008-04-17 07:59:31 51°17.316 2°52.123 38.5 0.6 254 11.4
2008-04-17 07:59:36 51°17.315 2°52.122 38.2 0.6 242 11.4
2008-04-17 07:59:41 51°17.315 2°52.121 37.6 0.6 250 11.4
2008-04-17 07:59:46 51°17.315 2°52.12 37.4 0.5 249 11.3
2008-04-17 07:59:51 51°17.315 2°52.119 37.2 0.4 232 11.3
2008-04-17 07:59:56 51°17.315 2°52.118 37.4 0.6 265 11.5
2008-04-17 08:00:01 51°17.314 2°52.117 37.9 0.4 235 11.4
2008-04-17 08:00:06 51°17.314 2°52.117 38.4 0.2 222 11.3
2008-04-17 08:00:11 51°17.314 2°52.116 38.7 0.3 272 11.3
2008-04-17 08:00:16 51°17.314 2°52.115 39.8 0.3 279 11.4
2008-04-17 08:00:21 51°17.314 2°52.115 40.4 0.1 295 11.3
2008-04-17 08:00:26 51°17.315 2°52.115 41.5 0.3 324 11.4
2008-04-17 08:00:31 51°17.315 2°52.115 43.4 0.1 350 11.4
2008-04-17 08:00:36 51°17.315 2°52.115 44.6 0.2 357 11.5
2008-04-17 08:00:41 51°17.315 2°52.115 46.3 0.2 29 11.5
2008-04-17 08:00:46 51°17.315 2°52.115 48.2 0.2 93 11.3
2008-04-17 08:00:51 51°17.316 2°52.115 49.8 0.1 31 11.3
2008-04-17 08:00:56 51°17.316 2°52.115 51.1 0.1 348 11.3
2008-04-17 08:01:01 51°17.316 2°52.116 52.2 0.1 66 11.3
2008-04-17 08:01:06 51°17.316 2°52.116 52.7 0.1 97 11.3
2008-04-17 08:01:11 51°17.316 2°52.116 52.9 0.1 97 11.3
2008-04-17 08:01:16 51°17.316 2°52.116 53.3 0.1 59 11.4
2008-04-17 08:01:21 51°17.316 2°52.116 53.5 0.1 130 11.4
2008-04-17 08:01:26 51°17.316 2°52.117 53.4 0.2 126 11.4
2008-04-17 08:01:31 51°17.316 2°52.117 53.2 0.1 102 11.4
2008-04-17 08:01:36 51°17.316 2°52.117 53 -999 8 11.5
2008-04-17 08:01:41 51°17.316 2°52.117 52.9 0.1 123 11.4
2008-04-17 08:01:46 51°17.316 2°52.117 52.4 0.1 164 11.4
2008-04-17 08:01:51 51°17.315 2°52.117 52.2 0.1 161 11.5
2008-04-17 08:01:56 51°17.316 2°52.117 51.6 -999 276 11.5
2008-04-17 08:02:01 51°17.315 2°52.117 51.3 0.1 170 11.4
2008-04-17 08:02:06 51°17.315 2°52.118 51.4 -999 190 11.4
2008-04-17 08:02:11 51°17.315 2°52.118 51.3 0.2 152 11.4
2008-04-17 08:02:16 51°17.315 2°52.118 51 0.1 183 11.5
2008-04-17 08:02:21 51°17.315 2°52.117 51 0.1 245 11.5
2008-04-17 08:02:26 51°17.315 2°52.118 51.1 0.2 200 11.5
2008-04-17 08:02:31 51°17.314 2°52.118 50.9 0.2 201 11.4
2008-04-17 08:02:36 51°17.314 2°52.118 51.5 0.2 189 11.4
2008-04-17 08:02:41 51°17.314 2°52.118 52.2 0.1 192 11.3
2008-04-17 08:02:46 51°17.314 2°52.118 52.8 0.1 160 11.4
2008-04-17 08:02:51 51°17.314 2°52.118 53.2 0.1 175 11.3
2008-04-17 08:02:56 51°17.314 2°52.118 53.8 0.1 189 11.3
2008-04-17 08:03:01 51°17.314 2°52.117 54.7 0.1 231 11.5
2008-04-17 08:03:06 51°17.313 2°52.117 55 0.2 211 11.4
2008-04-17 08:03:11 51°17.313 2°52.117 55 0.1 202 11.4
2008-04-17 08:03:16 51°17.313 2°52.117 54.8 0.2 226 11.4
2008-04-17 08:03:21 51°17.313 2°52.116 54.7 0.2 211 11.5
2008-04-17 08:03:26 51°17.313 2°52.116 54.4 0.2 219 11.5
2008-04-17 08:03:31 51°17.313 2°52.116 53.9 0.2 224 11.5
2008-04-17 08:03:36 51°17.312 2°52.116 53.4 0.2 233 11.4
2008-04-17 08:03:41 51°17.312 2°52.115 53.1 0.1 242 11.5
2008-04-17 08:03:46 51°17.312 2°52.115 52.7 0.1 206 11.4
2008-04-17 08:03:51 51°17.312 2°52.115 51.9 0.1 167 11.3
2008-04-17 08:03:56 51°17.312 2°52.115 51.4 0.1 271 11.3
2008-04-17 08:04:01 51°17.312 2°52.115 51.2 -999 252 11.4
2008-04-17 08:04:06 51°17.312 2°52.115 50.1 0.2 123 11.2
2008-04-17 08:04:11 51°17.312 2°52.115 49.5 0.2 93 11.2
2008-04-17 08:04:16 51°17.312 2°52.115 49.9 -999 63 11.4
2008-04-17 08:04:21 51°17.312 2°52.116 50.7 0.2 116 11.3
2008-04-17 08:04:26 51°17.312 2°52.116 51.6 0.2 94 11.3
2008-04-17 08:04:31 51°17.312 2°52.117 53.1 0.3 75 11.3
2008-04-17 08:04:36 51°17.312 2°52.117 54.7 0.3 100 11.2
2008-04-17 08:04:41 51°17.312 2°52.118 56.3 0.3 98 11.4
2008-04-17 08:04:46 51°17.312 2°52.119 58.5 0.4 85 11.4
2008-04-17 08:04:51 51°17.312 2°52.12 60.6 0.5 104 11.4
2008-04-17 08:04:56 51°17.311 2°52.121 61.5 0.5 96 11.4
2008-04-17 08:05:01 51°17.311 2°52.122 62.7 0.5 95 11.4
2008-04-17 08:05:06 51°17.311 2°52.124 64.1 0.6 106 11.5
2008-04-17 08:05:11 51°17.311 2°52.125 65 0.7 105 11.4
2008-04-17 08:05:16 51°17.311 2°52.127 66.2 0.7 96 11.5
2008-04-17 08:05:21 51°17.311 2°52.128 66.7 0.8 98 11.4
2008-04-17 08:05:26 51°17.31 2°52.13 66.9 0.9 106 11.2
2008-04-17 08:05:31 51°17.31 2°52.131 67.4 0.8 94 11.2
2008-04-17 08:05:36 51°17.31 2°52.133 67.4 0.8 103 11.3
2008-04-17 08:05:41 51°17.31 2°52.135 67.3 0.8 102 11.5
2008-04-17 08:05:46 51°17.31 2°52.137 66.5 0.8 90 11.6
2008-04-17 08:05:51 51°17.31 2°52.139 65.7 0.9 100 11.4
2008-04-17 08:05:55 51°17.31 2°52.14 64.8 0.8 89 11.4
2008-04-17 08:06:01 51°17.31 2°52.143 63.5 0.9 100 11.6
2008-04-17 08:06:06 51°17.31 2°52.145 62.4 0.9 97 11.4
2008-04-17 08:06:11 51°17.31 2°52.146 62 0.8 89 11.4
2008-04-17 08:06:16 51°17.309 2°52.149 61.7 0.9 96 11.5
2008-04-17 08:06:21 51°17.31 2°52.15 61 0.8 83 11.5
2008-04-17 08:06:26 51°17.31 2°52.153 60.3 0.9 89 11.4
2008-04-17 08:06:31 51°17.31 2°52.155 59.8 0.9 86 11.3
2008-04-17 08:06:36 51°17.31 2°52.156 58.6 0.8 79 11.3
2008-04-17 08:06:41 51°17.31 2°52.158 56.7 0.8 77 11.6
2008-04-17 08:06:46 51°17.311 2°52.16 54.3 0.8 72 11.5
2008-04-17 08:06:51 51°17.311 2°52.161 52 0.8 65 11.6
2008-04-17 08:06:56 51°17.312 2°52.163 49.4 0.8 64 11.4
2008-04-17 08:07:01 51°17.312 2°52.164 47.1 0.7 49 11.4
2008-04-17 08:07:06 51°17.313 2°52.166 45.3 0.7 58 11.5
2008-04-17 08:07:11 51°17.314 2°52.167 43.2 0.7 39 11.4
2008-04-17 08:07:16 51°17.314 2°52.168 41.3 0.6 50 11.4
2008-04-17 08:07:21 51°17.315 2°52.168 39.6 0.5 23 11.4
2008-04-17 08:07:26 51°17.315 2°52.169 37.8 0.5 30 11.6
2008-04-17 08:07:31 51°17.316 2°52.169 36.3 0.5 33 11.4
2008-04-17 08:07:36 51°17.317 2°52.17 35 0.5 15 11.3
2008-04-17 08:07:41 51°17.317 2°52.17 34.3 0.5 13 11.3
2008-04-17 08:07:46 51°17.318 2°52.17 34 0.4 5 11.4
2008-04-17 08:07:51 51°17.319 2°52.17 33.7 0.4 7 11.5
2008-04-17 08:07:55 51°17.319 2°52.17 33.9 0.4 8 11.4
2008-04-17 08:08:01 51°17.32 2°52.17 34.2 0.4 11 11.4
2008-04-17 08:08:06 51°17.32 2°52.171 34.6 0.4 10 11.3
2008-04-17 08:08:11 51°17.321 2°52.17 35.1 0.4 349 11.4
2008-04-17 08:08:16 51°17.321 2°52.17 35.8 0.3 355 11.4
2008-04-17 08:08:21 51°17.321 2°52.17 36.4 0.3 354 11.4
2008-04-17 08:08:26 51°17.322 2°52.17 36.8 0.3 345 11.4
2008-04-17 08:08:31 51°17.322 2°52.17 37.3 0.2 8 11.3
2008-04-17 08:08:36 51°17.322 2°52.17 37.8 0.2 343 11.3
2008-04-17 08:08:41 51°17.322 2°52.169 38.4 0.3 317 11.5
2008-04-17 08:08:46 51°17.323 2°52.169 38.9 0.1 335 11.4
2008-04-17 08:08:51 51°17.323 2°52.169 38.9 0.2 323 11.3
2008-04-17 08:08:56 51°17.323 2°52.169 39.7 0.2 301 11.4
2008-04-17 08:09:01 51°17.323 2°52.168 40 0.1 304 11.3
2008-04-17 08:09:06 51°17.323 2°52.168 40 0.3 312 11.4
2008-04-17 08:09:11 51°17.324 2°52.168 40.1 0.2 317 11.4
2008-04-17 08:09:16 51°17.324 2°52.167 40 0.2 286 11.4
2008-04-17 08:09:21 51°17.324 2°52.166 40.1 0.3 283 11.4
2008-04-17 08:09:26 51°17.324 2°52.166 40.1 0.3 267 11.5
2008-04-17 08:09:31 51°17.324 2°52.165 39.9 0.4 276 11.5
2008-04-17 08:09:36 51°17.324 2°52.165 40.1 0.2 269 11.5
2008-04-17 08:09:41 51°17.324 2°52.164 40 0.3 277 11.5
2008-04-17 08:09:46 51°17.324 2°52.164 40 0.3 271 11.5
2008-04-17 08:09:51 51°17.324 2°52.163 40.2 0.2 265 11.4
2008-04-17 08:09:56 51°17.324 2°52.162 39.8 0.3 267 11.4
2008-04-17 08:10:01 51°17.324 2°52.162 40 0.3 251 11.5
2008-04-17 08:10:06 51°17.324 2°52.161 40.1 0.3 255 11.5
2008-04-17 08:10:11 51°17.324 2°52.16 40 0.3 261 11.5
2008-04-17 08:10:15 51°17.323 2°52.159 40.1 0.4 259 11.4
2008-04-17 08:10:21 51°17.323 2°52.158 39.9 0.4 263 11.4
2008-04-17 08:10:26 51°17.323 2°52.158 39.8 0.3 257 11.3
2008-04-17 08:10:31 51°17.323 2°52.157 39.5 0.4 263 11.4
2008-04-17 08:10:36 51°17.323 2°52.156 39.7 0.4 256 11.3
2008-04-17 08:10:40 51°17.323 2°52.155 39.7 0.5 268 11.5
2008-04-17 08:10:46 51°17.323 2°52.154 39.1 0.4 266 11.4
2008-04-17 08:10:51 51°17.323 2°52.153 38.5 0.4 255 11.4
2008-04-17 08:10:56 51°17.323 2°52.152 38.2 0.5 267 11.6
2008-04-17 08:11:01 51°17.323 2°52.151 37.9 0.4 258 11.5
2008-04-17 08:11:06 51°17.323 2°52.151 37.7 0.4 258 11.4
2008-04-17 08:11:11 51°17.322 2°52.15 37.6 0.5 260 11.4
2008-04-17 08:11:16 51°17.322 2°52.149 37.7 0.4 254 11.3
2008-04-17 08:11:21 51°17.322 2°52.148 37.7 0.5 256 11.5
2008-04-17 08:11:26 51°17.322 2°52.147 37.8 0.5 257 11.5
2008-04-17 08:11:31 51°17.322 2°52.146 38 0.5 252 11.4
2008-04-17 08:11:36 51°17.322 2°52.145 37.8 0.4 252 11.4
2008-04-17 08:11:41 51°17.321 2°52.144 37.9 0.4 250 11.5
2008-04-17 08:11:46 51°17.321 2°52.143 37.9 0.4 247 11.6
2008-04-17 08:11:51 51°17.321 2°52.142 37.7 0.5 250 11.5
2008-04-17 08:11:56 51°17.321 2°52.141 37.6 0.5 251 11.5
2008-04-17 08:12:01 51°17.32 2°52.14 37.6 0.5 248 11.5
2008-04-17 08:12:06 51°17.32 2°52.139 37.1 0.5 253 11.6
2008-04-17 08:12:11 51°17.32 2°52.138 36.9 0.6 250 11.6
2008-04-17 08:12:16 51°17.32 2°52.137 36.7 0.4 242 11.5
2008-04-17 08:12:21 51°17.319 2°52.136 36.2 0.5 256 11.6
2008-04-17 08:12:26 51°17.319 2°52.134 35.7 0.6 248 11.6
2008-04-17 08:12:31 51°17.319 2°52.133 35.5 0.5 241 11.7
2008-04-17 08:12:36 51°17.319 2°52.132 34.7 0.6 255 11.7
2008-04-17 08:12:41 51°17.319 2°52.131 34 0.6 254 11.7
2008-04-17 08:12:46 51°17.318 2°52.13 33.2 0.6 246 11.6
2008-04-17 08:12:51 51°17.318 2°52.129 32.4 0.6 254 11.5
2008-04-17 08:12:56 51°17.318 2°52.128 31.8 0.5 249 11.4
2008-04-17 08:13:01 51°17.318 2°52.126 31.8 0.6 256 11.3
2008-04-17 08:13:06 51°17.317 2°52.125 31.2 0.6 253 11.4
2008-04-17 08:13:11 51°17.317 2°52.124 30.7 0.5 253 11.6
2008-04-17 08:13:16 51°17.317 2°52.122 30.4 0.6 266 11.7
2008-04-17 08:13:21 51°17.317 2°52.121 29.5 0.4 268 11.7
2008-04-17 08:13:26 51°17.317 2°52.121 29.1 0.3 283 11.7
2008-04-17 08:13:31 51°17.317 2°52.12 29.3 0.4 308 11.6
2008-04-17 08:13:36 51°17.318 2°52.12 29.8 0.3 330 11.6
2008-04-17 08:13:40 51°17.318 2°52.119 31.1 0.4 346 11.7
2008-04-17 08:13:46 51°17.319 2°52.12 32.6 0.6 355 11.7
2008-04-17 08:13:51 51°17.32 2°52.121 34.7 0.7 22 11.6
2008-04-17 08:13:56 51°17.321 2°52.122 36.9 0.8 35 11.5
2008-04-17 08:14:01 51°17.322 2°52.123 39.3 1 37 11.6
2008-04-17 08:14:06 51°17.323 2°52.126 42.6 1.2 53 11.7
2008-04-17 08:14:11 51°17.324 2°52.129 47.3 1.4 63 11.4
2008-04-17 08:14:16 51°17.325 2°52.132 51.8 1.6 65 11.5
2008-04-17 08:14:21 51°17.326 2°52.136 56.9 1.7 69 11.7
2008-04-17 08:14:26 51°17.327 2°52.139 60.9 1.8 78 11.5
2008-04-17 08:14:31 51°17.326 2°52.143 66 1.7 92 11.4
2008-04-17 08:14:36 51°17.326 2°52.146 71.4 1.5 87 11.3
2008-04-17 08:14:41 51°17.326 2°52.15 74.9 1.4 94 11.6
2008-04-17 08:14:46 51°17.325 2°52.153 78.3 1.4 105 11.6
2008-04-17 08:14:51 51°17.325 2°52.155 80.5 1.4 107 11.5
2008-04-17 08:14:56 51°17.324 2°52.158 83.2 1.3 111 11.5
2008-04-17 08:15:01 51°17.323 2°52.161 86 1.3 119 11.5
2008-04-17 08:15:06 51°17.323 2°52.163 88 1.3 120 11.5
2008-04-17 08:15:11 51°17.322 2°52.165 90.8 1.3 126 11.5
2008-04-17 08:15:16 51°17.32 2°52.168 92.8 1.3 125 11.5
2008-04-17 08:15:21 51°17.319 2°52.17 95.1 1.4 131 11.6
2008-04-17 08:15:26 51°17.318 2°52.172 98 1.4 137 11.5
2008-04-17 08:15:31 51°17.316 2°52.174 100.7 1.4 135 11.5
2008-04-17 08:15:36 51°17.315 2°52.176 103.7 1.5 142 11.5
2008-04-17 08:15:40 51°17.313 2°52.178 107.2 1.5 137 11.5
2008-04-17 08:15:46 51°17.311 2°52.18 111.2 1.7 146 11.6
2008-04-17 08:15:51 51°17.309 2°52.182 114.1 1.8 149 11.6
2008-04-17 08:15:56 51°17.307 2°52.185 117.8 2 150 11.5
2008-04-17 08:16:01 51°17.304 2°52.187 121.8 2.2 150 11.6
2008-04-17 08:16:06 51°17.301 2°52.189 126.7 2.4 156 11.5
2008-04-17 08:16:11 51°17.298 2°52.191 133.3 2.5 159 11.5
2008-04-17 08:16:16 51°17.294 2°52.193 138.2 2.7 161 11.4
2008-04-17 08:16:21 51°17.29 2°52.195 143.5 2.9 165 11.6
2008-04-17 08:16:26 51°17.286 2°52.196 149.2 3.1 169 11.4
2008-04-17 08:16:31 51°17.281 2°52.197 155.1 3.4 173 11.5
2008-04-17 08:16:36 51°17.276 2°52.197 162.6 3.5 177 11.6
2008-04-17 08:16:41 51°17.271 2°52.197 167.6 3.6 181 11.6
2008-04-17 08:16:46 51°17.266 2°52.195 173.7 3.7 188 11.6
2008-04-17 08:16:51 51°17.261 2°52.194 179.9 3.8 190 11.6
2008-04-17 08:16:56 51°17.255 2°52.191 185.6 4 197 11.7
2008-04-17 08:17:01 51°17.25 2°52.188 191.9 4.1 199 11.6
2008-04-17 08:17:06 51°17.244 2°52.184 196.7 4.3 204 11.7
2008-04-17 08:17:11 51°17.239 2°52.18 201.5 4.3 208 11.5
2008-04-17 08:17:16 51°17.234 2°52.175 205.3 4.3 208 11.6
2008-04-17 08:17:21 51°17.229 2°52.17 208.9 4.4 213 11.5
2008-04-17 08:17:26 51°17.223 2°52.165 212.1 4.4 210 11.4
2008-04-17 08:17:31 51°17.218 2°52.159 213.3 4.4 213 11.6
2008-04-17 08:17:36 51°17.213 2°52.154 214.3 4.5 212 11.6
2008-04-17 08:17:40 51°17.209 2°52.149 214.3 4.5 212 11.4
2008-04-17 08:17:46 51°17.202 2°52.143 213.7 4.6 212 11.6
2008-04-17 08:17:51 51°17.197 2°52.137 213.2 4.6 214 11.5
2008-04-17 08:17:56 51°17.192 2°52.132 212.3 4.6 211 11.5
2008-04-17 08:18:01 51°17.186 2°52.126 211.5 4.6 213 11.5
2008-04-17 08:18:06 51°17.181 2°52.122 210.8 4.5 207 11.4
2008-04-17 08:18:11 51°17.176 2°52.117 209.1 4.2 212 11.6
2008-04-17 08:18:16 51°17.171 2°52.113 208.5 4.1 206 11.4
2008-04-17 08:18:21 51°17.166 2°52.108 207.1 4 211 11.7
2008-04-17 08:18:26 51°17.161 2°52.105 206.5 3.8 205 11.6
2008-04-17 08:18:31 51°17.157 2°52.101 205.3 3.7 209 11.6
2008-04-17 08:18:36 51°17.152 2°52.098 204.7 3.7 206 11.5
2008-04-17 08:18:41 51°17.148 2°52.094 204.1 3.5 207 11.6
2008-04-17 08:18:46 51°17.143 2°52.091 203.6 3.4 206 11.6
2008-04-17 08:18:51 51°17.139 2°52.088 203.1 3.3 207 11.8
2008-04-17 08:18:56 51°17.135 2°52.085 202.9 3.2 205 11.7
2008-04-17 08:19:01 51°17.131 2°52.081 202.6 3.2 207 11.7
2008-04-17 08:19:06 51°17.127 2°52.079 202.6 3.1 203 11.7
2008-04-17 08:19:11 51°17.123 2°52.076 202.4 3.1 207 11.7
2008-04-17 08:19:16 51°17.119 2°52.073 202.5 3 204 11.6
2008-04-17 08:19:21 51°17.116 2°52.07 202.4 2.9 206 11.6
2008-04-17 08:19:26 51°17.112 2°52.067 202.5 2.9 206 11.7
2008-04-17 08:19:31 51°17.109 2°52.064 202.8 2.8 207 11.7
2008-04-17 08:19:36 51°17.106 2°52.061 202.7 2.7 205 11.7
2008-04-17 08:19:41 51°17.102 2°52.059 203.1 2.7 208 11.6
2008-04-17 08:19:46 51°17.099 2°52.056 203.3 2.6 207 11.5
2008-04-17 08:19:51 51°17.096 2°52.053 203.5 2.6 208 11.6
2008-04-17 08:19:56 51°17.093 2°52.05 203.9 2.6 208 11.8
2008-04-17 08:20:00 51°17.09 2°52.048 204.7 2.6 210 11.7
2008-04-17 08:20:06 51°17.087 2°52.045 205.7 2.5 210 11.7
2008-04-17 08:20:11 51°17.083 2°52.043 206.7 2.5 209 11.8
2008-04-17 08:20:16 51°17.08 2°52.039 207.6 2.6 214 11.6
2008-04-17 08:20:21 51°17.077 2°52.036 209.3 2.5 212 11.8
2008-04-17 08:20:26 51°17.074 2°52.034 210.6 2.5 212 11.7
2008-04-17 08:20:31 51°17.072 2°52.03 212 2.5 214 11.6
2008-04-17 08:20:36 51°17.069 2°52.027 214 2.5 216 11.7
2008-04-17 08:20:41 51°17.066 2°52.024 216.3 2.5 217 11.7
2008-04-17 08:20:46 51°17.063 2°52.02 218.2 2.6 219 11.7
2008-04-17 08:20:51 51°17.06 2°52.016 220.6 2.6 222 11.6
2008-04-17 08:20:56 51°17.058 2°52.013 222.4 2.6 221 11.7
2008-04-17 08:21:01 51°17.055 2°52.008 224.9 2.6 224 11.7
2008-04-17 08:21:06 51°17.052 2°52.004 227.7 2.7 224 11.6
2008-04-17 08:21:11 51°17.05 2°52 229.7 2.7 228 11.7
2008-04-17 08:21:16 51°17.047 2°51.995 231.6 2.8 225 11.6
2008-04-17 08:21:21 51°17.045 2°51.991 232.6 2.9 228 11.7
2008-04-17 08:21:26 51°17.042 2°51.986 233.6 2.8 232 11.9
2008-04-17 08:21:31 51°17.039 2°51.981 234.3 2.9 226 11.8
2008-04-17 08:21:36 51°17.037 2°51.976 233.8 2.9 231 11.8
2008-04-17 08:21:41 51°17.034 2°51.972 233.9 2.9 227 11.6
2008-04-17 08:21:46 51°17.031 2°51.967 233.4 3 227 11.7
2008-04-17 08:21:51 51°17.028 2°51.962 232.2 3 228 11.7
2008-04-17 08:21:56 51°17.025 2°51.957 231.8 3 225 11.6
2008-04-17 08:22:01 51°17.022 2°51.952 230.8 3.1 227 11.6
2008-04-17 08:22:06 51°17.02 2°51.947 229.5 3 227 11.8
2008-04-17 08:22:11 51°17.016 2°51.943 228.5 3.1 223 11.9
2008-04-17 08:22:16 51°17.013 2°51.938 227.4 3 226 11.9
2008-04-17 08:22:21 51°17.01 2°51.933 226.9 3.1 222 11.8
2008-04-17 08:22:26 51°17.007 2°51.928 226 3.2 225 11.9
2008-04-17 08:22:31 51°17.004 2°51.924 226 3.2 223 11.8
2008-04-17 08:22:36 51°17 2°51.919 225.2 3.1 223 11.8
2008-04-17 08:22:41 51°16.997 2°51.915 224.9 3.2 222 11.9
2008-04-17 08:22:46 51°16.994 2°51.91 224.9 3.2 220 11.9
2008-04-17 08:22:51 51°16.991 2°51.905 224.6 3.2 221 12
2008-04-17 08:22:56 51°16.987 2°51.901 224.6 3.2 222 11.9
2008-04-17 08:23:01 51°16.984 2°51.896 224.5 3.2 222 12
2008-04-17 08:23:06 51°16.981 2°51.891 224.5 3.2 222 12
2008-04-17 08:23:11 51°16.977 2°51.887 224.4 3.2 222 11.9
2008-04-17 08:23:16 51°16.974 2°51.882 224.5 3.2 222 11.7
2008-04-17 08:23:21 51°16.971 2°51.877 224.9 3.2 224 11.7
2008-04-17 08:23:26 51°16.967 2°51.872 225.3 3.2 221 11.5
2008-04-17 08:23:31 51°16.964 2°51.868 225.3 3.3 221 11.5
2008-04-17 08:23:36 51°16.961 2°51.862 225.5 3.3 227 11.5
2008-04-17 08:23:41 51°16.957 2°51.857 226.3 3.3 222 11.4
2008-04-17 08:23:45 51°16.955 2°51.853 226.3 3.3 222 11.4
2008-04-17 08:23:50 51°16.952 2°51.848 226 3.3 226 11.5
2008-04-17 08:23:55 51°16.948 2°51.843 226.4 3.3 222 11.6
2008-04-17 08:24:00 51°16.945 2°51.838 226.3 3.3 224 11.7
2008-04-17 08:24:05 51°16.941 2°51.833 226.4 3.3 223 11.7
2008-04-17 08:24:10 51°16.938 2°51.828 226.4 3.3 225 11.8
2008-04-17 08:24:15 51°16.935 2°51.824 226.4 3.3 221 11.9
2008-04-17 08:24:20 51°16.932 2°51.818 226.4 3.3 223 11.8
2008-04-17 08:24:26 51°16.928 2°51.812 226.6 3.3 226 11.7
2008-04-17 08:24:31 51°16.924 2°51.807 226.6 3.3 221 11.7
2008-04-17 08:24:35 51°16.922 2°51.803 226.4 3.3 225 11.8
2008-04-17 08:24:40 51°16.918 2°51.798 226.9 3.2 224 11.9
2008-04-17 08:24:46 51°16.914 2°51.792 226.7 3.3 221 11.9
2008-04-17 08:24:51 51°16.911 2°51.787 226.4 3.3 226 12
2008-04-17 08:24:55 51°16.908 2°51.783 227.1 3.3 221 11.9
2008-04-17 08:25:00 51°16.905 2°51.778 226.8 3.3 223 12.1
2008-04-17 08:25:06 51°16.901 2°51.772 227 3.3 227 12.2
2008-04-17 08:25:11 51°16.897 2°51.767 227.4 3.3 218 12
2008-04-17 08:25:15 51°16.895 2°51.763 226.5 3.3 226 12.1
2008-04-17 08:25:20 51°16.892 2°51.758 227 3.2 225 12.3
2008-04-17 08:25:25 51°16.888 2°51.753 227.2 3.3 223 12.3
2008-04-17 08:25:31 51°16.884 2°51.747 227.1 3.3 225 12.2
2008-04-17 08:25:35 51°16.882 2°51.743 227.8 3.3 223 12.3
2008-04-17 08:25:40 51°16.878 2°51.738 227.9 3.3 225 12.3
2008-04-17 08:25:45 51°16.875 2°51.733 228.2 3.3 226 12.3
2008-04-17 08:25:50 51°16.872 2°51.728 228.4 3.3 225 12.3
2008-04-17 08:25:55 51°16.869 2°51.722 228.5 3.3 224 12.2
2008-04-17 08:26:00 51°16.866 2°51.717 228.7 3.2 225 12.3
2008-04-17 08:26:05 51°16.862 2°51.712 228.7 3.2 223 12.5
2008-04-17 08:26:10 51°16.859 2°51.707 228.8 3.2 225 12.4
2008-04-17 08:26:15 51°16.856 2°51.702 229 3.3 225 12.4
2008-04-17 08:26:20 51°16.853 2°51.697 228.9 3.2 224 12.2
2008-04-17 08:26:25 51°16.85 2°51.692 228.5 3.2 224 12.3
2008-04-17 08:26:31 51°16.846 2°51.687 227.9 3.2 222 12.3
2008-04-17 08:26:35 51°16.843 2°51.682 228 3.2 227 12.2
2008-04-17 08:26:40 51°16.84 2°51.678 228.3 3.2 220 12.5
2008-04-17 08:26:46 51°16.836 2°51.672 227.6 3.2 226 12.3
2008-04-17 08:26:51 51°16.833 2°51.667 227.8 3.2 220 12.4
2008-04-17 08:26:55 51°16.83 2°51.663 227.6 3.2 227 12.3
2008-04-17 08:27:00 51°16.827 2°51.658 227.9 3.2 221 12.3
2008-04-17 08:27:06 51°16.823 2°51.652 227.8 3.2 221 12.1
2008-04-17 08:27:11 51°16.82 2°51.648 227.1 3.2 223 12.3
2008-04-17 08:27:15 51°16.817 2°51.644 227.8 3.2 224 12.3
2008-04-17 08:27:20 51°16.814 2°51.639 227.7 3.2 223 12.2
2008-04-17 08:27:25 51°16.811 2°51.634 227.5 3.2 224 12.1
2008-04-17 08:27:31 51°16.807 2°51.628 227.6 3.2 224 12.3
2008-04-17 08:27:35 51°16.804 2°51.624 227.5 3.2 225 12.1
2008-04-17 08:27:40 51°16.801 2°51.62 227.5 3.1 221 12.3
2008-04-17 08:27:45 51°16.798 2°51.615 227 3.1 224 12.3
2008-04-17 08:27:51 51°16.794 2°51.609 226.8 3.1 222 12.3
2008-04-17 08:27:55 51°16.791 2°51.606 226.9 3.1 221 12.3
2008-04-17 08:28:00 51°16.788 2°51.6 226.4 3.1 228 12.3
2008-04-17 08:28:05 51°16.785 2°51.596 227.1 3.1 220 12.3
2008-04-17 08:28:11 51°16.781 2°51.59 227 3.2 225 12.2
2008-04-17 08:28:15 51°16.779 2°51.586 226.8 3.1 225 12.1
2008-04-17 08:28:20 51°16.776 2°51.582 227.3 3.2 221 11.9
2008-04-17 08:28:25 51°16.773 2°51.576 227.1 3.1 227 11.9
2008-04-17 08:28:30 51°16.769 2°51.572 227.7 3.1 223 12
2008-04-17 08:28:36 51°16.765 2°51.566 227.7 3.1 225 12.1
2008-04-17 08:28:40 51°16.763 2°51.562 227.9 3.2 224 12.2
2008-04-17 08:28:46 51°16.759 2°51.556 228.2 3.2 223 12.3
2008-04-17 08:28:51 51°16.756 2°51.551 228.2 3.1 228 12.4
2008-04-17 08:28:55 51°16.753 2°51.547 228.6 3.2 220 12.5
2008-04-17 08:29:00 51°16.751 2°51.542 228.2 3.1 228 12.6
2008-04-17 08:29:06 51°16.746 2°51.536 228.6 3.2 223 12.7
2008-04-17 08:29:11 51°16.743 2°51.531 228.5 3.2 226 12.8
2008-04-17 08:29:15 51°16.741 2°51.527 228.7 3.3 222 12.9
2008-04-17 08:29:20 51°16.738 2°51.522 229 3.2 229 13
2008-04-17 08:29:26 51°16.734 2°51.516 229.4 3.2 223 12.7
2008-04-17 08:29:31 51°16.731 2°51.511 229.2 3.2 224 12.9
2008-04-17 08:29:35 51°16.728 2°51.507 228.8 3.2 225 12.8
2008-04-17 08:29:40 51°16.725 2°51.503 229.3 3.2 224 13
2008-04-17 08:29:45 51°16.722 2°51.497 229.1 3.2 225 13.1
2008-04-17 08:29:51 51°16.718 2°51.491 229.3 3.2 229 13
2008-04-17 08:29:55 51°16.715 2°51.488 229.6 3.2 222 13
2008-04-17 08:30:00 51°16.712 2°51.483 229 3.2 223 13
2008-04-17 08:30:05 51°16.709 2°51.477 228.7 3.2 227 13.3
2008-04-17 08:30:11 51°16.705 2°51.472 228.9 3.2 223 13.1
2008-04-17 08:30:15 51°16.703 2°51.468 229 3.1 225 13.2
2008-04-17 08:30:20 51°16.7 2°51.463 229.2 3.2 224 13
2008-04-17 08:30:25 51°16.697 2°51.458 229.1 3.2 224 13.1
2008-04-17 08:30:30 51°16.694 2°51.453 229.2 3.1 224 13.2
2008-04-17 08:30:35 51°16.69 2°51.448 229.5 3.1 223 13.1
2008-04-17 08:30:40 51°16.688 2°51.443 229.5 3.1 227 13.1
2008-04-17 08:30:45 51°16.684 2°51.438 230 3.2 224 13
2008-04-17 08:30:51 51°16.681 2°51.432 229.7 3.1 228 13
2008-04-17 08:30:55 51°16.678 2°51.428 229.9 3.2 223 12.7
2008-04-17 08:31:00 51°16.675 2°51.423 229.5 3.1 228 12.1
2008-04-17 08:31:06 51°16.672 2°51.417 229.7 3.1 224 11.3
2008-04-17 08:31:11 51°16.669 2°51.412 229.6 3.1 227 11.4
2008-04-17 08:31:15 51°16.666 2°51.408 229.2 3.1 228 11.6
2008-04-17 08:31:20 51°16.663 2°51.404 229.7 3.1 221 11.7
2008-04-17 08:31:26 51°16.66 2°51.398 228.7 3.1 230 12
2008-04-17 08:31:31 51°16.657 2°51.393 229.2 3 225 12.1
2008-04-17 08:31:35 51°16.655 2°51.389 229.3 3 229 12.2
2008-04-17 08:31:40 51°16.652 2°51.384 230.2 3 229 12.4
2008-04-17 08:31:46 51°16.649 2°51.378 232.6 3 229 12.3
2008-04-17 08:31:51 51°16.646 2°51.373 234.7 2.9 234 12.5
2008-04-17 08:31:55 51°16.645 2°51.369 237.7 2.8 236 12.6
2008-04-17 08:32:00 51°16.643 2°51.364 240.9 2.8 235 12.6
2008-04-17 08:32:06 51°16.641 2°51.357 244.2 2.7 244 12.7
2008-04-17 08:32:11 51°16.639 2°51.352 248 2.6 243 12.9
2008-04-17 08:32:15 51°16.638 2°51.348 251.3 2.6 245 12.7
2008-04-17 08:32:20 51°16.637 2°51.342 254.2 2.6 255 12.8
2008-04-17 08:32:25 51°16.635 2°51.337 257.9 2.6 249 12.8
2008-04-17 08:32:30 51°16.635 2°51.332 261.4 2.5 258 12.8
2008-04-17 08:32:35 51°16.634 2°51.327 264.8 2.5 260 12.9